createdAt,value
2022-08-03T00:01:56.841Z,6.90
2022-08-03T00:06:59.689Z,6.40
2022-08-03T00:12:02.717Z,8.50
2022-08-03T00:17:05.908Z,9.80
2022-08-03T00:22:08.685Z,8.60
2022-08-03T00:27:11.563Z,6.80
2022-08-03T00:32:19.467Z,6.70
2022-08-03T00:37:41.641Z,6.40
2022-08-03T00:42:48.743Z,8.10
2022-08-03T00:47:51.813Z,6.20
2022-08-03T00:52:57.339Z,6.10
2022-08-03T00:58:01.644Z,6.60
2022-08-03T01:03:05.921Z,10.60
2022-08-03T01:08:35.418Z,11.10
2022-08-03T01:14:03.566Z,7.90
2022-08-03T01:19:24.395Z,10.00
2022-08-03T01:24:55.165Z,6.20
2022-08-03T01:30:07.133Z,7.40
2022-08-03T01:35:16.665Z,9.80
2022-08-03T01:40:22.293Z,8.20
2022-08-03T01:45:26.898Z,5.60
2022-08-03T01:50:32.011Z,6.40
2022-08-03T01:55:36.780Z,6.50
2022-08-03T02:00:41.487Z,7.50
2022-08-03T02:05:46.374Z,7.40
2022-08-03T02:10:50.765Z,5.00
2022-08-03T02:15:54.872Z,7.40
2022-08-03T02:20:59.291Z,7.00
2022-08-03T02:26:07.524Z,6.20
2022-08-03T02:31:18.210Z,4.70
2022-08-03T02:36:25.494Z,5.00
2022-08-03T02:41:32.738Z,7.60
2022-08-03T02:46:45.630Z,6.90
2022-08-03T02:51:50.591Z,5.80
2022-08-03T02:56:56.197Z,7.50
2022-08-03T03:02:01.625Z,5.90
2022-08-03T03:07:05.356Z,6.90
2022-08-03T03:12:11.312Z,5.60
2022-08-03T03:17:17.093Z,8.50
2022-08-03T03:22:21.477Z,8.00
2022-08-03T03:27:24.568Z,5.00
2022-08-03T03:32:29.096Z,6.00
2022-08-03T03:37:31.995Z,6.90
2022-08-03T03:42:35.321Z,6.40
2022-08-03T03:47:38.377Z,5.40
2022-08-03T03:52:41.339Z,4.80
2022-08-03T03:57:44.694Z,7.10
2022-08-03T04:02:48.195Z,9.90
2022-08-03T04:08:17.541Z,4.80
2022-08-03T04:13:22.194Z,6.80
2022-08-03T04:18:27.858Z,6.00
2022-08-03T04:23:36.277Z,5.90
2022-08-03T04:28:43.058Z,6.30
2022-08-03T04:33:46.997Z,6.80
2022-08-03T04:39:03.851Z,6.20
2022-08-03T04:44:08.815Z,6.40
2022-08-03T04:49:12.334Z,6.20
2022-08-03T04:54:18.933Z,5.60
2022-08-03T04:59:21.741Z,6.20
2022-08-03T05:04:24.527Z,5.50
2022-08-03T05:09:50.066Z,6.40
2022-08-03T05:14:50.170Z,7.90
2022-08-03T05:19:53.057Z,6.70
2022-08-03T05:24:56.364Z,6.10
2022-08-03T05:30:30.764Z,8.20
2022-08-03T05:35:55.699Z,8.80
2022-08-03T05:40:46.985Z,5.60
2022-08-03T05:46:11.976Z,4.20
2022-08-03T05:51:16.032Z,5.50
2022-08-03T05:56:22.743Z,4.20
2022-08-03T06:01:25.698Z,4.00
2022-08-03T06:06:32.161Z,4.50
2022-08-03T06:11:35.516Z,6.10
2022-08-03T06:16:38.410Z,3.60
2022-08-03T06:21:41.355Z,3.70
2022-08-03T06:26:44.376Z,4.20
2022-08-03T06:31:47.265Z,5.90
2022-08-03T06:36:52.347Z,6.00
2022-08-03T06:41:55.651Z,4.10
2022-08-03T06:47:09.261Z,3.80
2022-08-03T06:52:13.235Z,8.00
2022-08-03T06:57:36.107Z,5.10
2022-08-03T07:02:40.107Z,4.20
2022-08-03T07:07:44.111Z,4.30
2022-08-03T07:12:52.975Z,4.20
2022-08-03T07:17:59.669Z,4.50
2022-08-03T07:23:02.585Z,4.40
2022-08-03T07:28:05.640Z,4.20
2022-08-03T07:33:08.433Z,4.80
2022-08-03T07:43:14.127Z,3.90
2022-08-03T07:48:17.359Z,4.40
2022-08-03T07:53:20.251Z,7.70
2022-08-03T07:58:24.464Z,4.70
2022-08-03T08:03:27.583Z,5.00
2022-08-03T08:08:50.431Z,3.80
2022-08-03T08:13:53.264Z,4.70
2022-08-03T08:23:58.938Z,5.00
2022-08-03T08:29:01.681Z,4.70
2022-08-03T08:34:05.865Z,4.20
2022-08-03T08:39:08.702Z,3.60
2022-08-03T08:44:11.805Z,3.40
2022-08-03T08:49:23.220Z,4.90
2022-08-03T08:54:26.856Z,4.50
2022-08-03T08:59:48.404Z,6.80
2022-08-03T09:04:54.334Z,3.70
2022-08-03T09:15:22.121Z,3.80
2022-08-03T09:20:26.886Z,3.30
2022-08-03T09:25:33.617Z,5.10
2022-08-03T09:30:38.473Z,4.90
2022-08-03T09:35:54.994Z,3.50
2022-08-03T09:41:01.039Z,3.50
2022-08-03T09:46:07.692Z,4.40
2022-08-03T09:51:13.056Z,8.10
2022-08-03T09:56:46.287Z,3.50
2022-08-03T10:01:49.097Z,2.90
2022-08-03T10:07:24.938Z,3.90
2022-08-03T10:12:29.226Z,5.00
2022-08-03T10:17:32.035Z,3.80
2022-08-03T10:22:36.904Z,4.90
2022-08-03T10:27:42.440Z,4.90
2022-08-03T10:33:02.958Z,4.70
2022-08-03T10:38:12.656Z,3.10
2022-08-03T10:43:23.137Z,3.80
2022-08-03T10:48:27.172Z,4.10
2022-08-03T10:53:55.074Z,3.90
2022-08-03T10:58:59.023Z,3.30
2022-08-03T11:04:10.966Z,3.50
2022-08-03T11:09:17.975Z,2.80
2022-08-03T11:14:22.191Z,6.30
2022-08-03T11:19:57.832Z,4.90
2022-08-03T11:25:02.612Z,2.50
2022-08-03T11:30:29.201Z,2.80
2022-08-03T11:35:43.858Z,5.10
2022-08-03T11:40:48.510Z,4.60
2022-08-03T11:46:07.424Z,3.70
2022-08-03T11:51:25.805Z,4.80
2022-08-03T11:56:30.113Z,3.70
2022-08-03T12:01:33.079Z,5.40
2022-08-03T12:06:55.234Z,3.50
2022-08-03T12:12:00.476Z,4.70
2022-08-03T12:17:04.290Z,4.60
2022-08-03T12:22:08.439Z,4.00
2022-08-03T12:27:11.330Z,4.70
2022-08-03T12:32:15.665Z,3.80
2022-08-03T12:37:22.638Z,3.90
2022-08-03T12:42:35.029Z,5.90
2022-08-03T12:48:00.775Z,4.00
2022-08-03T12:53:07.856Z,2.30
2022-08-03T12:58:33.644Z,3.80
2022-08-03T13:03:57.842Z,4.50
2022-08-03T13:09:08.067Z,3.10
2022-08-03T13:14:16.783Z,5.70
2022-08-03T13:19:23.259Z,4.70
2022-08-03T13:24:26.223Z,6.10
2022-08-03T13:29:29.205Z,6.30
2022-08-03T13:34:32.140Z,4.30
2022-08-03T13:39:35.111Z,5.50
2022-08-03T13:44:59.110Z,4.20
2022-08-03T13:50:03.085Z,4.90
2022-08-03T13:55:07.927Z,4.70
2022-08-03T14:00:11.963Z,8.10
2022-08-03T14:05:14.799Z,6.80
2022-08-03T14:10:19.846Z,5.10
2022-08-03T14:15:22.806Z,4.60
2022-08-03T14:20:36.869Z,3.50
2022-08-03T14:25:43.497Z,2.70
2022-08-03T14:30:55.865Z,4.50
2022-08-03T14:35:58.994Z,3.40
2022-08-03T14:41:01.931Z,5.70
2022-08-03T14:46:04.905Z,5.40
2022-08-03T14:51:07.893Z,4.10
2022-08-03T14:56:11.122Z,3.80
2022-08-03T15:02:04.776Z,5.40
2022-08-03T15:06:37.881Z,3.10
2022-08-03T15:11:40.889Z,3.70
2022-08-03T15:16:44.375Z,4.80
2022-08-03T15:21:47.753Z,3.70
2022-08-03T15:26:52.478Z,3.50
2022-08-03T15:31:55.273Z,4.60
2022-08-03T15:36:58.115Z,4.80
2022-08-03T15:42:00.998Z,4.40
2022-08-03T15:47:03.928Z,4.50
2022-08-03T15:52:06.855Z,4.90
2022-08-03T15:57:09.835Z,4.90
2022-08-03T16:02:13.052Z,4.40
2022-08-03T16:07:16.071Z,5.40
2022-08-03T16:12:18.899Z,6.30
2022-08-03T16:17:23.607Z,5.90
2022-08-03T16:22:27.207Z,6.80
2022-08-03T16:27:55.747Z,2.90
2022-08-03T16:32:53.160Z,6.00
2022-08-03T16:37:57.101Z,4.50
2022-08-03T16:43:00.055Z,4.90
2022-08-03T16:48:05.970Z,3.60
2022-08-03T16:53:10.124Z,4.30
2022-08-03T16:58:19.664Z,5.60
2022-08-03T17:03:42.677Z,6.50
2022-08-03T17:09:10.245Z,6.00
2022-08-03T17:14:14.925Z,5.20
2022-08-03T17:19:18.770Z,4.90
2022-08-03T17:24:28.321Z,5.00
2022-08-03T17:29:35.143Z,6.10
2022-08-03T17:34:38.700Z,6.20
2022-08-03T17:39:59.876Z,4.70
2022-08-03T17:45:03.813Z,6.10
2022-08-03T17:50:24.108Z,4.90
2022-08-03T17:55:56.673Z,7.40
2022-08-03T18:01:59.801Z,3.60
2022-08-03T18:06:55.769Z,6.90
2022-08-03T18:12:05.432Z,8.90
2022-08-03T18:17:15.785Z,5.40
2022-08-03T18:22:22.074Z,6.50
2022-08-03T18:27:45.412Z,8.50
2022-08-03T18:33:00.616Z,11.40
2022-08-03T18:38:04.244Z,7.20
2022-08-03T18:43:14.047Z,8.20
2022-08-03T18:48:40.638Z,9.40
2022-08-03T18:54:06.219Z,10.50
2022-08-03T18:59:14.854Z,8.00
2022-08-03T19:04:25.624Z,9.30
2022-08-03T19:09:35.076Z,9.60
2022-08-03T19:14:45.887Z,16.40
2022-08-03T19:19:51.348Z,14.40
2022-08-03T19:24:58.491Z,16.70
2022-08-03T19:30:11.857Z,10.00
2022-08-03T19:35:52.266Z,8.20
2022-08-03T19:40:50.916Z,9.90
2022-08-03T19:46:06.335Z,6.90
2022-08-03T19:51:12.157Z,7.00
2022-08-03T20:06:43.467Z,7.00
2022-08-03T20:16:51.899Z,7.10
2022-08-03T20:21:54.947Z,9.70
2022-08-03T20:27:00.400Z,8.60
2022-08-03T20:32:03.661Z,12.60
2022-08-03T20:37:09.474Z,15.80
2022-08-03T20:42:15.022Z,22.50
2022-08-03T20:47:27.128Z,26.80
2022-08-03T20:52:34.990Z,22.00
2022-08-03T20:57:53.741Z,17.00
2022-08-03T21:02:56.642Z,25.60
2022-08-03T21:08:07.151Z,27.10
2022-08-03T21:13:10.649Z,9.00
2022-08-03T21:13:25.800Z,26.00
2022-08-03T21:18:36.033Z,18.20
2022-08-03T21:23:49.892Z,15.00
2022-08-03T21:28:55.495Z,14.40
2022-08-03T21:34:02.664Z,13.90
2022-08-03T21:39:08.446Z,12.90
2022-08-03T21:44:11.897Z,11.20
2022-08-03T21:50:06.831Z,13.70
2022-08-03T21:54:43.484Z,11.90
2022-08-03T21:59:54.798Z,7.40
2022-08-03T22:04:58.164Z,9.40
2022-08-03T22:10:02.591Z,10.50
2022-08-03T22:15:09.512Z,8.90
2022-08-03T22:20:17.289Z,8.90
2022-08-03T22:25:24.795Z,8.50
2022-08-03T22:30:29.119Z,9.00
2022-08-03T22:35:47.288Z,8.30
2022-08-03T22:40:52.543Z,8.80
2022-08-03T22:46:09.528Z,9.00
2022-08-03T22:51:15.972Z,8.00
2022-08-03T22:56:19.119Z,10.10
2022-08-03T23:01:26.367Z,10.10
2022-08-03T23:06:38.949Z,10.00
2022-08-03T23:11:45.580Z,8.80
2022-08-03T23:16:50.802Z,11.70
2022-08-03T23:22:03.016Z,8.50
2022-08-03T23:27:09.681Z,7.90
2022-08-03T23:32:13.305Z,8.20
2022-08-03T23:37:17.808Z,8.10
2022-08-03T23:42:21.967Z,10.00
2022-08-03T23:47:25.136Z,9.00
2022-08-03T23:53:04.054Z,7.20
2022-08-03T23:58:28.282Z,8.00
